createdAt,value
2023-02-12T00:02:25.769Z,103132.97
2023-02-12T00:04:52.454Z,103125.50
2023-02-12T00:07:18.893Z,103122.66
2023-02-12T00:09:45.367Z,103120.78
2023-02-12T00:12:11.772Z,103123.25
2023-02-12T00:14:38.299Z,103129.44
2023-02-12T00:17:04.827Z,103123.88
2023-02-12T00:19:31.542Z,103120.16
2023-02-12T00:21:57.989Z,103128.22
2023-02-12T00:24:24.367Z,103124.50
2023-02-12T00:26:51.016Z,103119.03
2023-02-12T00:29:17.412Z,103129.97
2023-02-12T00:31:43.986Z,103130.81
2023-02-12T00:34:11.409Z,103131.69
2023-02-12T00:36:37.835Z,103135.41
2023-02-12T00:39:04.799Z,103128.97
2023-02-12T00:41:31.335Z,103133.41
2023-02-12T00:43:58.161Z,103131.44
2023-02-12T00:46:24.858Z,103123.97
2023-02-12T00:48:51.575Z,103126.69
2023-02-12T00:51:18.026Z,103127.47
2023-02-12T00:53:44.436Z,103121.78
2023-02-12T00:56:10.923Z,103114.28
2023-02-12T00:58:37.488Z,103116.03
2023-02-12T01:01:03.951Z,103122.13
2023-02-12T01:03:30.590Z,103119.13
2023-02-12T01:05:57.826Z,103116.13
2023-02-12T01:08:24.870Z,103124.22
2023-02-12T01:11:00.439Z,103129.41
2023-02-12T01:13:27.670Z,103129.41
2023-02-12T01:16:10.677Z,103124.81
2023-02-12T01:18:37.954Z,103130.44
2023-02-12T01:21:31.926Z,103131.53
2023-02-12T01:23:58.810Z,103140.63
2023-02-12T01:26:26.483Z,103129.69
2023-02-12T01:28:59.445Z,103128.69
2023-02-12T01:31:29.082Z,103118.75
2023-02-12T01:33:59.322Z,103138.63
2023-02-12T01:36:28.042Z,103133.16
2023-02-12T01:38:55.199Z,103123.06
2023-02-12T01:41:24.169Z,103127.44
2023-02-12T01:44:07.149Z,103126.56
2023-02-12T01:46:33.707Z,103130.16
2023-02-12T01:49:01.724Z,103128.44
2023-02-12T01:51:29.384Z,103132.75
2023-02-12T01:54:01.771Z,103117.13
2023-02-12T01:56:29.152Z,103116.25
2023-02-12T01:58:57.692Z,103114.22
2023-02-12T02:01:30.588Z,103119.69
2023-02-12T02:04:04.156Z,103121.44
2023-02-12T02:06:53.985Z,103115.97
2023-02-12T02:09:20.503Z,103121.44
2023-02-12T02:12:05.670Z,103118.81
2023-02-12T02:14:35.491Z,103118.97
2023-02-12T02:17:32.709Z,103118.22
2023-02-12T02:20:17.613Z,103118.22
2023-02-12T02:22:49.999Z,103123.44
2023-02-12T02:25:47.086Z,103119.59
2023-02-12T02:28:45.835Z,103119.59
2023-02-12T02:31:21.840Z,103113.25
2023-02-12T02:33:57.331Z,103110.25
2023-02-12T02:36:58.080Z,103113.72
2023-02-12T02:39:39.425Z,103102.78
2023-02-12T02:42:23.707Z,103109.97
2023-02-12T02:44:55.022Z,103111.72
2023-02-12T02:47:29.430Z,103104.28
2023-02-12T02:50:12.377Z,103100.66
2023-02-12T02:52:52.499Z,103093.34
2023-02-12T02:55:22.273Z,103102.25
2023-02-12T02:57:56.014Z,103102.25
2023-02-12T03:00:33.738Z,103100.28
2023-02-12T03:03:07.837Z,103096.78
2023-02-12T03:05:45.283Z,103098.81
2023-02-12T03:08:24.013Z,103100.66
2023-02-12T03:10:59.653Z,103094.16
2023-02-12T03:13:48.904Z,103095.31
2023-02-12T03:16:26.178Z,103092.47
2023-02-12T03:18:59.851Z,103098.81
2023-02-12T03:21:41.448Z,103085.84
2023-02-12T03:24:23.847Z,103096.66
2023-02-12T03:27:15.128Z,103088.69
2023-02-12T03:29:41.711Z,103094.16
2023-02-12T03:32:54.836Z,103096.06
2023-02-12T03:35:26.400Z,103083.13
2023-02-12T03:38:10.684Z,103095.91
2023-02-12T03:40:56.102Z,103096.78
2023-02-12T03:43:33.614Z,103091.31
2023-02-12T03:46:03.186Z,103085.72
2023-02-12T03:48:46.040Z,103103.84
2023-02-12T03:51:34.981Z,103095.91
2023-02-12T03:54:02.461Z,103096.66
2023-02-12T03:56:37.681Z,103098.25
2023-02-12T03:59:05.444Z,103089.19
2023-02-12T04:01:34.792Z,103087.31
2023-02-12T04:04:05.930Z,103089.06
2023-02-12T04:06:32.727Z,103089.94
2023-02-12T04:09:03.631Z,103085.19
2023-02-12T04:11:47.562Z,103095.16
2023-02-12T04:14:20.121Z,103094.13
2023-02-12T04:17:08.937Z,103088.81
2023-02-12T04:20:08.043Z,103093.28
2023-02-12T04:22:46.864Z,103099.75
2023-02-12T04:25:52.117Z,103107.19
2023-02-12T04:28:53.621Z,103108.34
2023-02-12T04:31:53.813Z,103112.06
2023-02-12T04:34:32.211Z,103110.34
2023-02-12T04:36:58.564Z,103112.22
2023-02-12T04:39:31.374Z,103112.22
2023-02-12T04:42:00.031Z,103120.41
2023-02-12T04:44:30.814Z,103120.41
2023-02-12T04:46:57.552Z,103125.88
2023-02-12T04:49:24.981Z,103130.22
2023-02-12T04:51:51.802Z,103132.84
2023-02-12T04:54:20.194Z,103125.34
2023-02-12T04:56:46.895Z,103119.63
2023-02-12T04:59:13.902Z,103122.13
2023-02-12T05:01:41.358Z,103116.66
2023-02-12T05:04:10.442Z,103116.50
2023-02-12T05:06:38.602Z,103116.50
2023-02-12T05:09:06.688Z,103115.34
2023-02-12T05:11:33.294Z,103116.22
2023-02-12T05:13:59.967Z,103115.13
2023-02-12T05:16:26.496Z,103116.81
2023-02-12T05:18:52.962Z,103107.63
2023-02-12T05:21:19.430Z,103114.84
2023-02-12T05:23:45.831Z,103116.59
2023-02-12T05:26:16.547Z,103111.13
2023-02-12T05:28:43.099Z,103116.59
2023-02-12T05:31:13.610Z,103117.44
2023-02-12T05:33:43.767Z,103122.19
2023-02-12T05:36:13.564Z,103131.25
2023-02-12T05:38:40.592Z,103120.59
2023-02-12T05:41:09.576Z,103126.91
2023-02-12T05:43:36.353Z,103131.53
2023-02-12T05:46:04.713Z,103127.78
2023-02-12T05:48:31.820Z,103126.06
2023-02-12T05:51:03.203Z,103133.25
2023-02-12T05:53:30.285Z,103137.84
2023-02-12T05:56:16.688Z,103135.09
2023-02-12T05:58:46.500Z,103136.13
2023-02-12T06:01:23.653Z,103138.00
2023-02-12T06:03:50.083Z,103140.72
2023-02-12T06:06:16.745Z,103147.19
2023-02-12T06:08:43.286Z,103147.94
2023-02-12T06:11:14.302Z,103148.78
2023-02-12T06:13:41.459Z,103152.41
2023-02-12T06:16:16.015Z,103148.78
2023-02-12T06:18:42.516Z,103144.19
2023-02-12T06:21:08.959Z,103153.41
2023-02-12T06:23:35.391Z,103154.25
2023-02-12T06:26:01.780Z,103146.94
2023-02-12T06:28:28.361Z,103153.41
2023-02-12T06:30:54.859Z,103156.16
2023-02-12T06:33:21.423Z,103158.91
2023-02-12T06:35:47.807Z,103163.50
2023-02-12T06:38:14.527Z,103173.56
2023-02-12T06:40:40.958Z,103160.75
2023-02-12T06:43:07.723Z,103157.16
2023-02-12T06:45:35.233Z,103162.63
2023-02-12T06:48:01.794Z,103165.34
2023-02-12T06:50:28.815Z,103166.09
2023-02-12T06:52:55.188Z,103166.97
2023-02-12T06:55:21.797Z,103173.19
2023-02-12T06:57:48.221Z,103167.72
2023-02-12T07:00:14.884Z,103164.09
2023-02-12T07:02:41.518Z,103163.09
2023-02-12T07:05:08.231Z,103169.31
2023-02-12T07:07:34.765Z,103177.41
2023-02-12T07:10:01.273Z,103172.75
2023-02-12T07:12:27.692Z,103181.72
2023-02-12T07:14:54.172Z,103178.72
2023-02-12T07:17:20.551Z,103175.72
2023-02-12T07:19:46.970Z,103177.47
2023-02-12T07:22:13.331Z,103184.41
2023-02-12T07:24:39.760Z,103186.16
2023-02-12T07:27:06.260Z,103184.16
2023-02-12T07:29:32.810Z,103182.13
2023-02-12T07:31:59.341Z,103184.63
2023-02-12T07:34:25.844Z,103186.13
2023-02-12T07:36:52.241Z,103187.72
2023-02-12T07:39:18.640Z,103186.28
2023-02-12T07:41:45.008Z,103179.72
2023-02-12T07:44:13.020Z,103176.53
2023-02-12T07:46:48.053Z,103170.84
2023-02-12T07:49:17.967Z,103177.78
2023-02-12T07:51:44.671Z,103181.97
2023-02-12T07:54:12.328Z,103179.56
2023-02-12T07:56:39.874Z,103177.56
2023-02-12T07:59:10.373Z,103176.41
2023-02-12T08:01:39.384Z,103182.50
2023-02-12T08:04:11.350Z,103181.38
2023-02-12T08:06:40.228Z,103190.03
2023-02-12T08:09:09.818Z,103184.31
2023-02-12T08:11:37.460Z,103187.66
2023-02-12T08:14:04.703Z,103186.50
2023-02-12T08:16:35.433Z,103186.22
2023-02-12T08:19:15.845Z,103188.56
2023-02-12T08:21:44.143Z,103191.91
2023-02-12T08:24:11.526Z,103195.94
2023-02-12T08:26:39.271Z,103194.56
2023-02-12T08:29:09.288Z,103192.28
2023-02-12T08:31:38.643Z,103193.75
2023-02-12T08:34:05.802Z,103200.66
2023-02-12T08:36:38.753Z,103198.06
2023-02-12T08:39:07.926Z,103200.41
2023-02-12T08:41:35.502Z,103200.41
2023-02-12T08:44:04.193Z,103201.88
2023-02-12T08:46:33.609Z,103196.09
2023-02-12T08:49:02.874Z,103195.53
2023-02-12T08:51:33.155Z,103196.72
2023-02-12T08:54:01.906Z,103200.63
2023-02-12T08:56:30.012Z,103197.34
2023-02-12T08:59:00.662Z,103211.38
2023-02-12T09:01:29.539Z,103198.06
2023-02-12T09:03:56.050Z,103203.16
2023-02-12T09:06:24.653Z,103202.28
2023-02-12T09:08:52.149Z,103201.28
2023-02-12T09:11:32.735Z,103204.34
2023-02-12T09:14:03.534Z,103207.84
2023-02-12T09:16:32.259Z,103203.22
2023-02-12T09:18:59.011Z,103206.97
2023-02-12T09:21:25.744Z,103205.81
2023-02-12T09:23:52.843Z,103200.03
2023-02-12T09:26:22.329Z,103206.25
2023-02-12T09:28:50.827Z,103205.25
2023-02-12T09:31:22.958Z,103200.94
2023-02-12T09:33:52.272Z,103202.38
2023-02-12T09:36:21.161Z,103203.09
2023-02-12T09:38:48.955Z,103204.69
2023-02-12T09:41:42.633Z,103203.69
2023-02-12T09:44:17.855Z,103202.50
2023-02-12T09:47:03.531Z,103205.00
2023-02-12T09:49:56.210Z,103204.84
2023-02-12T09:52:27.678Z,103207.88
2023-02-12T09:54:54.577Z,103209.47
2023-02-12T09:57:29.389Z,103207.16
2023-02-12T10:00:00.289Z,103198.63
2023-02-12T10:02:26.918Z,103203.69
2023-02-12T10:05:01.301Z,103203.13
2023-02-12T10:07:53.409Z,103213.66
2023-02-12T10:10:47.478Z,103214.50
2023-02-12T10:13:46.688Z,103217.56
2023-02-12T10:16:25.535Z,103217.25
2023-02-12T10:19:02.339Z,103210.47
2023-02-12T10:21:46.947Z,103205.84
2023-02-12T10:24:19.157Z,103208.88
2023-02-12T10:26:51.441Z,103205.69
2023-02-12T10:29:25.067Z,103205.66
2023-02-12T10:32:04.792Z,103203.34
2023-02-12T10:34:36.928Z,103211.72
2023-02-12T10:37:11.366Z,103204.63
2023-02-12T10:40:07.258Z,103203.44
2023-02-12T10:42:43.368Z,103207.00
2023-02-12T10:45:19.978Z,103206.09
2023-02-12T10:47:49.793Z,103204.50
2023-02-12T10:50:36.410Z,103193.75
2023-02-12T10:53:05.661Z,103198.88
2023-02-12T10:55:34.952Z,103199.31
2023-02-12T10:58:03.730Z,103201.44
2023-02-12T11:00:34.664Z,103199.22
2023-02-12T11:03:05.140Z,103192.13
2023-02-12T11:05:35.848Z,103193.28
2023-02-12T11:08:02.949Z,103188.00
2023-02-12T11:10:41.802Z,103177.13
2023-02-12T11:13:27.828Z,103181.38
2023-02-12T11:15:55.300Z,103179.97
2023-02-12T11:18:26.830Z,103181.84
2023-02-12T11:20:58.539Z,103173.34
2023-02-12T11:23:29.621Z,103178.66
2023-02-12T11:26:19.413Z,103172.84
2023-02-12T11:29:24.375Z,103157.75
2023-02-12T11:32:08.332Z,103160.47
2023-02-12T11:34:35.783Z,103150.22
2023-02-12T11:37:03.085Z,103152.75
2023-02-12T11:39:35.897Z,103138.75
2023-02-12T11:42:15.316Z,103145.00
2023-02-12T11:44:48.140Z,103146.84
2023-02-12T11:47:22.185Z,103137.59
2023-02-12T11:49:55.944Z,103135.63
2023-02-12T11:52:27.285Z,103124.63
2023-02-12T11:54:59.168Z,103128.31
2023-02-12T11:58:02.818Z,103127.66
2023-02-12T12:00:35.560Z,103115.97
2023-02-12T12:03:17.521Z,103110.66
2023-02-12T12:05:52.617Z,103113.81
2023-02-12T12:08:28.771Z,103106.59
2023-02-12T12:11:04.718Z,103099.72
2023-02-12T12:13:38.597Z,103097.31
2023-02-12T12:16:30.000Z,103096.25
2023-02-12T12:19:20.822Z,103091.78
2023-02-12T12:21:58.782Z,103088.78
2023-02-12T12:24:52.205Z,103089.81
2023-02-12T12:27:52.119Z,103090.69
2023-02-12T12:30:41.993Z,103090.88
2023-02-12T12:33:26.259Z,103083.66
2023-02-12T12:36:19.120Z,103085.56
2023-02-12T12:38:57.067Z,103083.78
2023-02-12T12:41:51.440Z,103084.13
2023-02-12T12:44:20.831Z,103084.13
2023-02-12T12:47:10.072Z,103081.09
2023-02-12T12:50:18.391Z,103083.16
2023-02-12T12:53:12.165Z,103082.31
2023-02-12T12:55:41.580Z,103077.13
2023-02-12T12:58:14.014Z,103082.09
2023-02-12T13:01:10.028Z,103076.59
2023-02-12T13:04:05.553Z,103066.38
2023-02-12T13:07:09.613Z,103067.59
2023-02-12T13:10:13.542Z,103066.19
2023-02-12T13:13:01.250Z,103064.50
2023-02-12T13:15:41.127Z,103051.88
2023-02-12T13:18:17.169Z,103049.25
2023-02-12T13:21:11.618Z,103042.34
2023-02-12T13:23:56.407Z,103049.06
2023-02-12T13:26:33.164Z,103041.81
2023-02-12T13:29:11.930Z,103038.88
2023-02-12T13:31:47.765Z,103036.81
2023-02-12T13:34:16.216Z,103039.09
2023-02-12T13:36:43.718Z,103039.63
2023-02-12T13:39:25.444Z,103034.09
2023-02-12T13:42:07.460Z,103030.28
2023-02-12T13:44:52.400Z,103032.91
2023-02-12T13:47:51.270Z,103024.47
2023-02-12T13:50:27.847Z,103022.41
2023-02-12T13:53:14.333Z,103025.16
2023-02-12T13:56:02.402Z,103028.25
2023-02-12T13:58:34.845Z,103025.84
2023-02-12T14:01:14.266Z,103021.69
2023-02-12T14:03:40.840Z,103017.53
2023-02-12T14:06:14.368Z,103012.81
2023-02-12T14:08:46.882Z,103011.22
2023-02-12T14:11:17.263Z,103011.91
2023-02-12T14:13:54.968Z,103009.50
2023-02-12T14:16:41.659Z,103013.06
2023-02-12T14:19:52.535Z,103007.34
2023-02-12T14:22:27.911Z,103003.19
2023-02-12T14:24:56.402Z,103006.81
2023-02-12T14:27:27.740Z,103010.38
2023-02-12T14:30:09.906Z,103007.78
2023-02-12T14:32:45.316Z,103022.44
2023-02-12T14:35:26.823Z,103017.09
2023-02-12T14:37:58.168Z,103012.41
2023-02-12T14:40:48.998Z,103021.34
2023-02-12T14:43:54.460Z,103010.66
2023-02-12T14:46:24.152Z,103014.44
2023-02-12T14:48:55.780Z,103016.50
2023-02-12T14:51:34.031Z,103018.06
2023-02-12T14:54:01.209Z,103021.13
2023-02-12T14:56:27.949Z,103017.53
2023-02-12T14:58:58.817Z,103019.06
2023-02-12T15:01:36.321Z,103024.44
2023-02-12T15:04:20.103Z,103021.69
2023-02-12T15:06:59.032Z,103013.63
2023-02-12T15:09:39.010Z,103013.47
2023-02-12T15:12:07.595Z,103009.84
2023-02-12T15:14:42.994Z,103016.91
2023-02-12T15:17:20.738Z,103012.59
2023-02-12T15:20:02.640Z,103004.88
2023-02-12T15:22:41.938Z,103007.28
2023-02-12T15:25:28.027Z,103011.78
2023-02-12T15:27:58.516Z,103005.41
2023-02-12T15:30:32.306Z,103004.53
2023-02-12T15:33:03.061Z,103000.78
2023-02-12T15:35:32.776Z,102998.00
2023-02-12T15:38:01.190Z,103009.72
2023-02-12T15:40:31.599Z,103010.59
2023-02-12T15:43:00.226Z,103002.19
2023-02-12T15:45:30.167Z,102997.53
2023-02-12T15:48:02.330Z,103006.47
2023-02-12T15:50:31.217Z,103001.69
2023-02-12T15:52:57.959Z,103002.53
2023-02-12T15:55:27.392Z,103000.63
2023-02-12T15:57:57.254Z,102993.25
2023-02-12T16:00:41.337Z,102991.50
2023-02-12T16:03:22.340Z,102993.41
2023-02-12T16:05:50.193Z,102992.56
2023-02-12T16:08:19.259Z,102987.03
2023-02-12T16:10:51.523Z,102987.03
2023-02-12T16:13:21.064Z,102989.09
2023-02-12T16:16:04.776Z,102981.00
2023-02-12T16:18:31.961Z,102985.63
2023-02-12T16:21:15.901Z,102984.06
2023-02-12T16:23:44.475Z,102977.69
2023-02-12T16:26:23.789Z,102974.41
2023-02-12T16:28:54.143Z,102979.06
2023-02-12T16:31:23.804Z,102983.16
2023-02-12T16:33:53.391Z,102983.50
2023-02-12T16:36:19.766Z,102988.13
2023-02-12T16:38:48.067Z,102986.41
2023-02-12T16:41:20.460Z,102988.47
2023-02-12T16:43:49.203Z,102990.34
2023-02-12T16:46:18.326Z,102995.16
2023-02-12T16:48:49.305Z,102998.91
2023-02-12T16:51:29.571Z,102992.88
2023-02-12T16:54:01.094Z,102994.94
2023-02-12T16:56:31.389Z,102989.75
2023-02-12T16:58:59.854Z,102995.41
2023-02-12T17:01:32.870Z,102996.44
2023-02-12T17:04:01.276Z,103003.31
2023-02-12T17:06:29.595Z,103007.97
2023-02-12T17:08:57.218Z,103007.25
2023-02-12T17:11:24.503Z,103000.31
2023-02-12T17:13:53.757Z,103014.09
2023-02-12T17:16:30.400Z,103009.91
2023-02-12T17:18:57.664Z,103004.75
2023-02-12T17:21:28.108Z,103005.94
2023-02-12T17:23:54.621Z,103007.81
2023-02-12T17:26:24.718Z,103011.78
2023-02-12T17:28:51.109Z,103016.72
2023-02-12T17:31:17.839Z,103014.13
2023-02-12T17:33:44.457Z,103018.94
2023-02-12T17:36:12.171Z,103013.56
2023-02-12T17:38:38.683Z,103018.53
2023-02-12T17:41:10.522Z,103017.84
2023-02-12T17:43:36.949Z,103020.75
2023-02-12T17:46:09.503Z,103020.06
2023-02-12T17:48:35.881Z,103021.94
2023-02-12T17:51:02.288Z,103026.69
2023-02-12T17:53:28.753Z,103022.22
2023-02-12T17:55:55.216Z,103016.88
2023-02-12T17:58:21.634Z,103023.38
2023-02-12T18:00:48.061Z,103025.25
2023-02-12T18:03:14.508Z,103023.56
2023-02-12T18:05:42.653Z,103027.31
2023-02-12T18:08:10.222Z,103020.09
2023-02-12T18:10:41.682Z,103031.09
2023-02-12T18:13:08.425Z,103025.91
2023-02-12T18:15:35.084Z,103030.72
2023-02-12T18:18:01.596Z,103035.50
2023-02-12T18:20:28.124Z,103026.38
2023-02-12T18:22:54.611Z,103029.13
2023-02-12T18:25:21.134Z,103033.75
2023-02-12T18:27:47.547Z,103023.63
2023-02-12T18:30:14.502Z,103033.94
2023-02-12T18:32:41.108Z,103031.50
2023-02-12T18:35:08.381Z,103035.09
2023-02-12T18:37:34.918Z,103034.25
2023-02-12T18:40:01.516Z,103041.63
2023-02-12T18:42:32.626Z,103043.34
2023-02-12T18:44:59.144Z,103037.84
2023-02-12T18:47:25.667Z,103043.34
2023-02-12T18:49:52.221Z,103036.81
2023-02-12T18:52:18.664Z,103034.06
2023-02-12T18:54:45.070Z,103038.56
2023-02-12T18:57:11.506Z,103037.00
2023-02-12T18:59:38.028Z,103038.16
2023-02-12T19:02:05.236Z,103028.19
2023-02-12T19:04:31.865Z,103034.53
2023-02-12T19:06:58.360Z,103030.94
2023-02-12T19:09:26.162Z,103031.97
2023-02-12T19:11:55.134Z,103023.72
2023-02-12T19:14:23.400Z,103022.84
2023-02-12T19:16:50.732Z,103030.53
2023-02-12T19:19:20.188Z,103026.06
2023-02-12T19:21:47.056Z,103031.72
2023-02-12T19:24:15.412Z,103028.97
2023-02-12T19:26:44.215Z,103023.63
2023-02-12T19:29:12.356Z,103039.25
2023-02-12T19:31:44.182Z,103022.19
2023-02-12T19:34:21.705Z,103032.31
2023-02-12T19:36:49.572Z,103024.94
2023-02-12T19:39:22.274Z,103028.44
2023-02-12T19:41:49.807Z,103028.25
2023-02-12T19:44:19.148Z,103018.81
2023-02-12T19:46:46.778Z,103015.03
2023-02-12T19:49:22.640Z,103017.66
2023-02-12T19:51:50.235Z,103013.84
2023-02-12T19:54:18.573Z,103013.72
2023-02-12T19:56:45.938Z,103012.69
2023-02-12T19:59:18.255Z,103012.69
2023-02-12T20:01:46.135Z,103019.06
2023-02-12T20:04:14.658Z,103008.75
2023-02-12T20:06:42.328Z,103014.13
2023-02-12T20:09:10.586Z,103009.63
2023-02-12T20:11:38.490Z,103012.38
2023-02-12T20:14:07.741Z,103008.44
2023-02-12T20:16:38.131Z,103007.56
2023-02-12T20:19:11.357Z,103013.25
2023-02-12T20:21:38.892Z,103003.13
2023-02-12T20:24:05.760Z,103010.50
2023-02-12T20:26:33.372Z,103002.38
2023-02-12T20:29:03.308Z,103005.13
2023-02-12T20:31:33.850Z,103006.00
2023-02-12T20:34:02.924Z,103008.94
2023-02-12T20:36:35.157Z,103010.66
2023-02-12T20:39:01.695Z,103013.56
2023-02-12T20:41:28.774Z,103019.94
2023-02-12T20:43:56.023Z,103008.94
2023-02-12T20:46:24.075Z,103011.69
2023-02-12T20:48:50.879Z,103014.44
2023-02-12T20:51:20.213Z,103015.44
2023-02-12T20:53:47.587Z,103021.66
2023-02-12T20:56:16.716Z,103008.06
2023-02-12T20:58:44.990Z,103020.97
2023-02-12T21:01:15.445Z,103019.22
2023-02-12T21:03:41.893Z,103014.72
2023-02-12T21:06:08.593Z,103025.72
2023-02-12T21:08:39.502Z,103017.66
2023-02-12T21:11:15.365Z,103017.66
2023-02-12T21:13:50.394Z,103021.41
2023-02-12T21:16:31.712Z,103016.78
2023-02-12T21:18:58.623Z,103021.41
2023-02-12T21:21:28.762Z,103014.72
2023-02-12T21:23:57.219Z,103021.97
2023-02-12T21:26:25.561Z,103013.56
2023-02-12T21:28:53.143Z,103024.41
2023-02-12T21:31:28.920Z,103020.78
2023-02-12T21:33:56.990Z,103023.72
2023-02-12T21:36:26.098Z,103013.56
2023-02-12T21:38:53.468Z,103019.94
2023-02-12T21:41:26.128Z,103020.97
2023-02-12T21:43:57.051Z,103025.59
2023-02-12T21:46:24.370Z,103023.31
2023-02-12T21:48:51.060Z,103021.56
2023-02-12T21:51:21.657Z,103029.13
2023-02-12T21:53:49.961Z,103031.88
2023-02-12T21:56:17.101Z,103021.00
2023-02-12T21:58:44.560Z,103030.44
2023-02-12T22:01:16.209Z,103024.94
2023-02-12T22:03:46.028Z,103020.47
2023-02-12T22:06:14.372Z,103015.69
2023-02-12T22:08:40.942Z,103021.19
2023-02-12T22:11:10.221Z,103029.75
2023-02-12T22:13:37.597Z,103020.63
2023-02-12T22:16:09.407Z,103016.00
2023-02-12T22:18:36.110Z,103024.41
2023-02-12T22:21:04.718Z,103022.66
2023-02-12T22:23:31.366Z,103025.25
2023-02-12T22:26:11.947Z,103031.47
2023-02-12T22:28:43.957Z,103036.81
2023-02-12T22:31:13.284Z,103031.47
2023-02-12T22:33:40.128Z,103031.78
2023-02-12T22:36:09.239Z,103033.34
2023-02-12T22:38:37.524Z,103040.59
2023-02-12T22:41:04.733Z,103029.44
2023-02-12T22:43:33.629Z,103031.19
2023-02-12T22:46:00.484Z,103027.56
2023-02-12T22:48:28.479Z,103033.06
2023-02-12T22:50:56.855Z,103030.44
2023-02-12T22:53:24.540Z,103028.56
2023-02-12T22:55:51.174Z,103028.72
2023-02-12T22:58:18.189Z,103035.94
2023-02-12T23:00:44.727Z,103034.22
2023-02-12T23:03:11.188Z,103033.66
2023-02-12T23:05:38.835Z,103032.09
2023-02-12T23:08:06.370Z,103024.53
2023-02-12T23:10:33.247Z,103020.06
2023-02-12T23:13:01.494Z,103027.59
2023-02-12T23:15:27.912Z,103028.66
2023-02-12T23:17:54.427Z,103030.53
2023-02-12T23:20:20.882Z,103032.72
2023-02-12T23:22:47.267Z,103035.63
2023-02-12T23:25:13.824Z,103030.25
2023-02-12T23:27:40.225Z,103037.50
2023-02-12T23:30:07.331Z,103027.22
2023-02-12T23:32:33.737Z,103031.69
2023-02-12T23:35:00.155Z,103030.97
2023-02-12T23:37:26.571Z,103032.88
2023-02-12T23:39:53.021Z,103031.28
2023-02-12T23:42:19.440Z,103033.72
2023-02-12T23:44:45.846Z,103034.91
2023-02-12T23:47:12.373Z,103036.81
2023-02-12T23:49:38.838Z,103025.06
2023-02-12T23:52:05.327Z,103021.31
2023-02-12T23:54:31.855Z,103018.88
2023-02-12T23:56:58.333Z,103022.63
2023-02-12T23:59:25.344Z,103024.38
